createdAt,value
2019-02-25T00:01:18.760Z,25.60
2019-02-25T00:03:48.282Z,25.93
2019-02-25T00:06:18.380Z,25.47
2019-02-25T00:08:47.836Z,26.80
2019-02-25T00:11:16.927Z,27.93
2019-02-25T00:13:46.444Z,29.07
2019-02-25T00:16:17.455Z,28.97
2019-02-25T00:18:46.813Z,28.97
2019-02-25T00:21:17.950Z,32.27
2019-02-25T00:23:47.973Z,28.33
2019-02-25T00:26:17.451Z,29.43
2019-02-25T00:28:46.781Z,32.57
2019-02-25T00:31:15.751Z,33.10
2019-02-25T00:33:45.264Z,29.97
2019-02-25T00:36:15.185Z,26.80
2019-02-25T00:38:44.456Z,32.60
2019-02-25T00:41:13.950Z,27.67
2019-02-25T00:43:43.750Z,29.47
2019-02-25T00:46:15.909Z,31.50
2019-02-25T00:48:46.485Z,25.83
2019-02-25T00:51:16.565Z,29.47
2019-02-25T00:53:46.227Z,23.97
2019-02-25T00:56:15.838Z,27.27
2019-02-25T00:58:45.429Z,25.70
2019-02-25T01:01:16.586Z,24.80
2019-02-25T01:03:46.056Z,26.17
2019-02-25T01:06:16.198Z,27.87
2019-02-25T01:08:45.444Z,29.27
2019-02-25T01:11:14.745Z,28.43
2019-02-25T01:13:43.831Z,29.63
2019-02-25T01:16:13.448Z,28.47
2019-02-25T01:18:42.751Z,30.13
2019-02-25T01:21:14.124Z,25.97
2019-02-25T01:23:44.750Z,28.73
2019-02-25T01:26:14.266Z,31.20
2019-02-25T01:28:43.443Z,26.07
2019-02-25T01:31:14.899Z,27.53
2019-02-25T01:33:44.447Z,25.63
2019-02-25T01:36:13.806Z,26.10
2019-02-25T01:38:43.313Z,32.67
2019-02-25T01:41:12.900Z,30.17
2019-02-25T01:43:42.440Z,28.90
2019-02-25T01:46:12.150Z,24.83
2019-02-25T01:48:41.734Z,26.23
2019-02-25T01:51:12.769Z,21.80
2019-02-25T01:53:44.440Z,22.67
2019-02-25T01:56:13.749Z,24.27
2019-02-25T01:58:43.337Z,26.50
2019-02-25T02:01:13.041Z,31.27
2019-02-25T02:03:42.505Z,23.30
2019-02-25T02:06:11.830Z,28.73
2019-02-25T02:08:41.345Z,26.90
2019-02-25T02:11:12.446Z,27.00
2019-02-25T02:13:41.745Z,23.90
2019-02-25T02:16:11.401Z,22.03
2019-02-25T02:18:40.749Z,23.73
2019-02-25T02:21:11.072Z,22.50
2019-02-25T02:23:41.147Z,23.83
2019-02-25T02:26:12.725Z,28.53
2019-02-25T02:28:42.401Z,24.90
2019-02-25T02:31:11.832Z,22.67
2019-02-25T02:33:41.505Z,20.27
2019-02-25T02:36:11.740Z,21.63
2019-02-25T02:38:41.747Z,24.90
2019-02-25T02:41:10.829Z,22.30
2019-02-25T02:43:40.332Z,21.07
2019-02-25T02:46:14.135Z,22.77
2019-02-25T02:48:52.966Z,20.37
2019-02-25T02:51:22.524Z,21.23
2019-02-25T02:53:52.389Z,19.27
2019-02-25T02:56:21.782Z,22.70
2019-02-25T02:58:54.017Z,23.73
2019-02-25T03:01:24.064Z,19.93
2019-02-25T03:03:53.763Z,20.13
2019-02-25T03:06:23.265Z,20.43
2019-02-25T03:08:53.834Z,22.97
2019-02-25T03:11:27.247Z,22.57
2019-02-25T03:13:56.444Z,17.67
2019-02-25T03:16:25.746Z,18.23
2019-02-25T03:18:55.468Z,20.50
2019-02-25T06:15:22.731Z,32.95
2019-02-25T06:17:52.796Z,29.93
2019-02-25T06:20:22.724Z,35.10
2019-02-25T06:22:51.880Z,32.27
2019-02-25T06:25:24.868Z,28.27
2019-02-25T06:27:54.579Z,30.67
2019-02-25T06:30:25.183Z,36.90
2019-02-25T06:32:55.003Z,32.87
2019-02-25T06:35:25.521Z,35.33
2019-02-25T06:37:56.176Z,31.83
2019-02-25T06:40:26.055Z,29.30
2019-02-25T06:42:57.803Z,28.17
2019-02-25T06:45:36.039Z,35.33
2019-02-25T06:48:05.951Z,31.10
2019-02-25T06:50:36.580Z,37.47
2019-02-25T06:53:06.887Z,35.50
2019-02-25T06:55:36.461Z,32.87
2019-02-25T06:58:05.838Z,33.23
2019-02-25T07:00:35.677Z,33.23
2019-02-25T07:03:05.748Z,33.73
2019-02-25T07:05:48.307Z,34.50
2019-02-25T07:08:33.537Z,33.40
2019-02-25T07:11:09.960Z,35.50
2019-02-25T07:13:44.020Z,40.97
2019-02-25T07:16:24.089Z,34.00
2019-02-25T07:18:56.749Z,40.30
2019-02-25T07:21:39.530Z,40.00
2019-02-25T07:24:13.520Z,37.03
2019-02-25T07:26:56.568Z,38.83
2019-02-25T07:29:36.975Z,43.33
2019-02-25T07:32:17.384Z,38.53
2019-02-25T07:34:54.748Z,57.03
2019-02-25T07:37:42.708Z,56.43
2019-02-25T07:40:23.061Z,60.43
2019-02-25T07:43:00.896Z,48.63
2019-02-25T07:45:44.639Z,47.67
2019-02-25T07:48:21.678Z,46.73
2019-02-25T07:50:58.851Z,49.97
2019-02-25T07:53:35.726Z,52.30
2019-02-25T07:56:07.100Z,48.77
2019-02-25T07:58:54.720Z,47.63
2019-02-25T08:01:26.056Z,49.80
2019-02-25T08:04:13.695Z,52.30
2019-02-25T08:06:59.985Z,50.77
2019-02-25T08:09:41.077Z,51.97
2019-02-25T08:12:14.161Z,48.93
2019-02-25T08:14:48.643Z,50.87
2019-02-25T08:17:29.139Z,51.43
2019-02-25T08:20:00.799Z,44.07
2019-02-25T08:22:50.284Z,47.93
2019-02-25T08:25:40.961Z,48.00
2019-02-25T08:28:28.925Z,45.53
2019-02-25T08:31:02.911Z,44.30
2019-02-25T08:33:46.646Z,39.53
2019-02-25T08:36:43.960Z,49.33
2019-02-25T08:39:19.900Z,50.37
2019-02-25T08:41:51.598Z,48.67
2019-02-25T08:44:34.736Z,45.97
2019-02-25T08:47:07.952Z,43.17
2019-02-25T08:49:39.157Z,40.20
2019-02-25T08:52:10.046Z,38.13
2019-02-25T08:54:40.010Z,45.00
2019-02-25T08:57:10.132Z,42.40
2019-02-25T08:59:40.858Z,39.77
2019-02-25T09:02:11.476Z,42.67
2019-02-25T09:04:40.995Z,42.53
2019-02-25T09:07:10.574Z,38.70
2019-02-25T09:09:40.812Z,40.97
2019-02-25T09:12:10.667Z,43.90
2019-02-25T09:14:42.304Z,39.70
2019-02-25T09:17:13.660Z,51.30
2019-02-25T09:19:44.591Z,36.73
2019-02-25T09:22:15.046Z,40.47
2019-02-25T09:24:45.104Z,42.67
2019-02-25T09:27:15.945Z,48.43
2019-02-25T09:29:47.574Z,41.17
2019-02-25T09:32:18.977Z,43.40
2019-02-25T09:34:48.795Z,40.17
2019-02-25T09:37:20.415Z,46.57
2019-02-25T09:39:51.906Z,41.60
2019-02-25T09:42:23.921Z,42.77
2019-02-25T09:44:54.115Z,42.60
2019-02-25T09:47:23.499Z,39.53
2019-02-25T09:49:54.069Z,39.13
2019-02-25T09:52:23.717Z,43.73
2019-02-25T09:54:53.922Z,46.93
2019-02-25T09:57:24.041Z,48.17
2019-02-25T09:59:54.021Z,50.10
2019-02-25T10:02:24.836Z,39.17
2019-02-25T10:04:54.952Z,36.73
2019-02-25T10:07:24.689Z,34.83
2019-02-25T10:09:54.944Z,39.43
2019-02-25T10:12:24.601Z,39.07
2019-02-25T10:14:54.656Z,35.90
2019-02-25T10:17:26.659Z,36.17
2019-02-25T10:19:56.746Z,32.27
2019-02-25T10:22:26.744Z,38.87
2019-02-25T10:24:56.862Z,38.17
2019-02-25T10:27:27.240Z,36.53
2019-02-25T10:29:57.043Z,33.03
2019-02-25T10:32:28.000Z,29.60
2019-02-25T10:34:59.065Z,35.60
2019-02-25T10:37:29.059Z,33.87
2019-02-25T10:39:59.057Z,30.90
2019-02-25T10:42:29.503Z,32.67
2019-02-25T10:45:02.543Z,33.27
2019-02-25T10:47:31.891Z,35.40
2019-02-25T10:50:03.232Z,33.37
2019-02-25T10:52:32.805Z,31.30
2019-02-25T10:55:03.235Z,29.93
2019-02-25T10:57:32.956Z,22.27
2019-02-25T11:00:04.957Z,21.37
2019-02-25T11:02:44.052Z,26.63
2019-02-25T11:05:08.940Z,25.33
2019-02-25T11:07:39.842Z,28.30
2019-02-25T11:10:14.009Z,24.60
2019-02-25T11:12:43.927Z,26.87
2019-02-25T11:15:15.985Z,29.30
2019-02-25T11:17:47.674Z,26.77
2019-02-25T11:20:17.941Z,27.10
2019-02-25T11:22:48.511Z,25.57
2019-02-25T11:25:19.450Z,26.50
2019-02-25T11:27:50.486Z,31.53
2019-02-25T11:30:23.692Z,28.77
2019-02-25T11:32:53.928Z,33.20
2019-02-25T11:35:24.899Z,29.57
2019-02-25T11:38:01.687Z,31.50
2019-02-25T11:40:31.853Z,28.73
2019-02-25T11:43:02.714Z,26.37
2019-02-25T11:45:32.956Z,30.63
2019-02-25T11:48:07.242Z,27.30
2019-02-25T11:50:37.094Z,24.43
2019-02-25T11:53:07.017Z,30.37
2019-02-25T11:55:36.915Z,28.03
2019-02-25T11:58:09.908Z,26.30
2019-02-25T12:00:40.014Z,26.27
2019-02-25T12:03:10.055Z,28.00
2019-02-25T12:05:40.189Z,24.33
2019-02-25T12:08:10.810Z,24.00
2019-02-25T12:10:42.016Z,25.63
2019-02-25T12:13:11.949Z,22.67
2019-02-25T12:15:41.664Z,26.10
2019-02-25T12:18:11.994Z,24.70
2019-02-25T12:20:42.405Z,32.90
2019-02-25T12:23:14.151Z,27.23
2019-02-25T12:25:44.469Z,28.77
2019-02-25T12:28:15.212Z,29.83
2019-02-25T12:30:45.918Z,24.00
2019-02-25T12:33:15.946Z,26.43
2019-02-25T12:35:45.583Z,38.10
2019-02-25T12:38:16.395Z,34.30
2019-02-25T12:40:47.230Z,26.47
2019-02-25T12:43:16.928Z,24.30
2019-02-25T12:45:46.655Z,24.43
2019-02-25T12:48:18.168Z,29.53
2019-02-25T12:50:47.819Z,22.30
2019-02-25T12:53:17.935Z,27.60
2019-02-25T12:55:47.511Z,24.27
2019-02-25T12:58:17.912Z,23.10
2019-02-25T13:00:47.769Z,23.67
2019-02-25T13:03:17.945Z,28.77
2019-02-25T13:05:48.999Z,25.60
2019-02-25T13:08:19.405Z,28.50
2019-02-25T13:10:49.219Z,17.70
2019-02-25T13:13:19.019Z,23.47
2019-02-25T13:15:48.886Z,21.13
2019-02-25T13:18:18.587Z,18.60
2019-02-25T13:20:48.969Z,23.10
2019-02-25T13:23:19.224Z,20.10
2019-02-25T13:25:49.645Z,18.33
2019-02-25T13:28:20.936Z,11.47
2019-02-25T13:30:51.025Z,16.90
2019-02-25T13:33:20.600Z,14.10
2019-02-25T13:35:50.935Z,18.37
2019-02-25T13:38:22.013Z,13.43
2019-02-25T13:40:52.357Z,15.07
2019-02-25T13:43:22.631Z,17.07
2019-02-25T13:45:52.866Z,17.33
2019-02-25T13:48:22.667Z,15.53
2019-02-25T13:50:54.016Z,18.33
2019-02-25T13:53:24.613Z,16.63
2019-02-25T13:55:54.691Z,16.20
2019-02-25T13:58:24.789Z,14.07
2019-02-25T14:00:56.411Z,15.10
2019-02-25T14:03:26.803Z,12.87
2019-02-25T14:05:56.683Z,14.00
2019-02-25T14:08:27.925Z,17.77
2019-02-25T14:10:57.899Z,10.03
2019-02-25T14:13:29.459Z,12.90
2019-02-25T14:15:59.383Z,11.07
2019-02-25T14:18:29.601Z,12.57
2019-02-25T14:21:00.739Z,12.87
2019-02-25T14:23:30.943Z,11.63
2019-02-25T14:26:01.187Z,12.03
2019-02-25T14:28:31.003Z,10.23
2019-02-25T14:31:00.888Z,12.50
2019-02-25T14:33:30.896Z,9.00
2019-02-25T14:36:00.866Z,10.13
2019-02-25T14:38:32.296Z,13.37
2019-02-25T14:41:04.519Z,10.33
2019-02-25T14:43:41.788Z,12.93
2019-02-25T14:46:09.965Z,9.33
2019-02-25T14:48:39.140Z,10.33
2019-02-25T14:51:08.950Z,9.00
2019-02-25T14:53:39.373Z,11.43
2019-02-25T14:56:10.189Z,10.07
2019-02-25T14:58:40.624Z,12.13
2019-02-25T15:01:11.924Z,9.53
2019-02-25T15:03:41.907Z,13.70
2019-02-25T15:06:13.106Z,12.43
2019-02-25T15:08:42.872Z,12.17
2019-02-25T15:11:14.326Z,13.67
2019-02-25T15:13:44.635Z,14.30
2019-02-25T15:16:14.886Z,14.30
2019-02-25T15:18:44.927Z,14.83
2019-02-25T15:21:16.290Z,15.17
2019-02-25T15:23:46.944Z,13.13
2019-02-25T15:26:17.840Z,14.30
2019-02-25T15:28:51.629Z,15.77
2019-02-25T15:31:23.297Z,12.20
2019-02-25T15:33:53.698Z,14.93
2019-02-25T15:36:24.741Z,12.63
2019-02-25T15:38:55.097Z,14.03
2019-02-25T15:41:24.906Z,15.83
2019-02-25T15:43:59.810Z,14.70
2019-02-25T15:46:29.037Z,16.23
2019-02-25T15:48:59.398Z,19.67
2019-02-25T15:51:30.402Z,20.27
2019-02-25T15:54:02.015Z,21.57
2019-02-25T15:56:33.442Z,16.10
2019-02-25T15:59:05.887Z,16.50
2019-02-25T16:01:36.037Z,20.73
2019-02-25T16:04:07.118Z,19.00
2019-02-25T16:06:38.237Z,17.57
2019-02-25T16:09:11.241Z,16.80
2019-02-25T16:11:43.970Z,16.17
2019-02-25T16:14:15.600Z,17.97
2019-02-25T16:16:45.759Z,19.70
2019-02-25T16:19:17.644Z,18.00
2019-02-25T16:21:47.697Z,20.80
2019-02-25T16:24:18.707Z,18.60
2019-02-25T16:26:49.766Z,18.37
2019-02-25T16:29:19.765Z,17.80
2019-02-25T16:31:51.526Z,23.47
2019-02-25T16:34:21.958Z,21.47
2019-02-25T16:36:53.785Z,22.53
2019-02-25T16:39:23.888Z,22.67
2019-02-25T16:41:54.237Z,24.70
2019-02-25T16:44:24.176Z,20.33
2019-02-25T16:46:55.613Z,22.93
2019-02-25T16:49:26.942Z,22.20
2019-02-25T16:52:00.342Z,25.97
2019-02-25T16:54:30.193Z,23.40
2019-02-25T16:56:59.887Z,23.23
2019-02-25T16:59:31.269Z,22.10
2019-02-25T17:02:02.280Z,25.30
2019-02-25T17:04:33.909Z,19.47
2019-02-25T17:07:03.975Z,25.63
2019-02-25T17:09:36.416Z,21.47
2019-02-25T17:12:06.765Z,25.10
2019-02-25T17:14:40.486Z,23.13
2019-02-25T17:17:10.815Z,26.53
2019-02-25T17:19:40.545Z,24.77
2019-02-25T17:22:10.785Z,24.47
2019-02-25T17:24:40.713Z,26.97
2019-02-25T17:27:11.833Z,20.73
2019-02-25T17:29:43.441Z,27.07
2019-02-25T17:32:14.591Z,22.60
2019-02-25T17:34:45.843Z,26.87
2019-02-25T17:37:17.176Z,25.13
2019-02-25T17:39:46.929Z,26.70
2019-02-25T17:42:17.298Z,24.37
2019-02-25T17:44:49.327Z,24.40
2019-02-25T17:47:24.258Z,21.73
2019-02-25T17:49:52.136Z,26.37
2019-02-25T17:52:22.876Z,31.43
2019-02-25T17:54:53.781Z,22.50
2019-02-25T17:57:25.588Z,22.20
2019-02-25T17:59:56.972Z,24.87
2019-02-25T18:02:26.584Z,21.67
2019-02-25T18:04:57.489Z,23.47
2019-02-25T18:07:27.867Z,22.33
2019-02-25T18:09:59.029Z,21.37
2019-02-25T18:12:31.484Z,21.13
2019-02-25T18:15:01.487Z,16.97
2019-02-25T18:17:32.325Z,17.70
2019-02-25T18:20:02.484Z,17.80
2019-02-25T18:22:33.025Z,21.93
2019-02-25T18:25:04.204Z,21.33
2019-02-25T18:27:35.271Z,20.83
2019-02-25T18:30:08.223Z,18.37
2019-02-25T18:32:39.140Z,19.13
2019-02-25T18:35:12.208Z,24.00
2019-02-25T18:37:43.442Z,17.27
2019-02-25T18:40:16.171Z,46.90
2019-02-25T18:42:46.060Z,14.77
2019-02-25T18:45:20.816Z,19.53
2019-02-25T18:47:50.931Z,22.23
2019-02-25T18:50:26.342Z,19.37
2019-02-25T18:52:59.584Z,23.77
2019-02-25T18:55:33.528Z,22.63
2019-02-25T18:58:01.966Z,17.70
2019-02-25T19:00:39.513Z,21.13
2019-02-25T19:03:09.145Z,22.07
2019-02-25T19:05:39.800Z,18.00
2019-02-25T19:08:19.826Z,17.13
2019-02-25T19:10:51.135Z,18.13
2019-02-25T19:13:20.992Z,15.43
2019-02-25T19:15:53.124Z,21.77
2019-02-25T19:18:22.969Z,17.13
2019-02-25T19:20:52.806Z,19.97
2019-02-25T19:23:22.581Z,23.90
2019-02-25T19:25:52.884Z,18.00
2019-02-25T19:28:24.444Z,18.43
2019-02-25T19:30:54.087Z,16.60
2019-02-25T19:33:23.502Z,22.57
2019-02-25T19:35:56.706Z,20.87
2019-02-25T19:38:27.919Z,20.60
2019-02-25T19:40:57.930Z,21.57
2019-02-25T19:43:29.917Z,19.87
2019-02-25T19:46:01.627Z,19.57
2019-02-25T19:48:31.858Z,20.23
2019-02-25T19:51:03.735Z,20.57
2019-02-25T19:53:34.209Z,19.77
2019-02-25T19:56:04.407Z,20.67
2019-02-25T19:58:35.886Z,20.07
2019-02-25T20:01:09.017Z,18.70
2019-02-25T20:03:40.143Z,20.47
2019-02-25T20:06:13.910Z,32.97
2019-02-25T20:08:42.495Z,22.70
2019-02-25T20:11:12.519Z,25.83
2019-02-25T20:13:43.498Z,27.67
2019-02-25T20:16:17.726Z,28.10
2019-02-25T20:18:44.881Z,27.33
2019-02-25T20:21:15.066Z,23.47
2019-02-25T20:23:45.387Z,23.33
2019-02-25T20:26:18.317Z,25.93
2019-02-25T20:28:50.581Z,27.47
2019-02-25T20:31:21.401Z,25.10
2019-02-25T20:33:53.045Z,23.43
2019-02-25T20:36:24.181Z,28.67
2019-02-25T20:38:53.890Z,23.23
2019-02-25T20:41:24.484Z,21.47
2019-02-25T20:43:56.205Z,23.63
2019-02-25T20:46:26.332Z,20.70
2019-02-25T20:48:59.824Z,27.30
2019-02-25T20:51:31.487Z,29.50
2019-02-25T20:54:00.815Z,19.53
2019-02-25T20:56:31.050Z,19.07
2019-02-25T20:59:03.918Z,25.83
2019-02-25T21:01:37.160Z,21.43
2019-02-25T21:04:05.698Z,22.57
2019-02-25T21:06:37.484Z,20.97
2019-02-25T21:09:08.963Z,25.40
2019-02-25T21:11:38.934Z,26.10
2019-02-25T21:14:08.615Z,17.80
2019-02-25T21:16:40.124Z,21.87
2019-02-25T21:19:10.771Z,18.03
2019-02-25T21:21:40.813Z,16.63
2019-02-25T21:24:11.761Z,19.23
2019-02-25T21:26:41.905Z,18.03
2019-02-25T21:29:11.858Z,18.83
2019-02-25T21:31:43.236Z,17.27
2019-02-25T21:34:15.265Z,23.63
2019-02-25T21:36:44.248Z,19.30
2019-02-25T21:39:16.964Z,22.73
2019-02-25T21:41:45.961Z,18.83
2019-02-25T21:44:18.822Z,18.50
2019-02-25T21:46:51.856Z,19.77
2019-02-25T21:49:22.594Z,21.13
2019-02-25T21:51:49.679Z,21.37
2019-02-25T21:54:18.929Z,20.30
2019-02-25T21:56:48.441Z,19.63
2019-02-25T21:59:20.194Z,19.77
2019-02-25T22:01:52.826Z,16.27
2019-02-25T22:04:24.824Z,18.47
2019-02-25T22:06:55.790Z,17.93
2019-02-25T22:09:35.998Z,16.23
2019-02-25T22:11:57.807Z,20.63
2019-02-25T22:14:28.432Z,20.10
2019-02-25T22:16:58.842Z,18.63
2019-02-25T22:19:29.389Z,17.43
2019-02-25T22:22:00.437Z,18.87
2019-02-25T22:24:32.097Z,21.43
2019-02-25T22:27:01.524Z,16.97
2019-02-25T22:29:34.406Z,15.57
2019-02-25T22:32:03.935Z,16.97
2019-02-25T22:34:33.796Z,15.67
2019-02-25T22:37:07.768Z,19.83
2019-02-25T22:39:40.840Z,18.93
2019-02-25T22:42:13.764Z,16.10
2019-02-25T22:44:44.941Z,14.57
2019-02-25T22:47:15.969Z,17.50
2019-02-25T22:49:46.225Z,18.93
2019-02-25T22:52:16.371Z,16.43
2019-02-25T22:54:45.810Z,18.23
2019-02-25T22:57:18.759Z,15.63
2019-02-25T22:59:51.088Z,12.73
2019-02-25T23:02:20.918Z,16.77
2019-02-25T23:04:51.906Z,16.97
2019-02-25T23:07:22.916Z,15.27
2019-02-25T23:09:54.414Z,19.43
2019-02-25T23:12:24.272Z,16.80
2019-02-25T23:14:56.133Z,14.73
2019-02-25T23:17:25.749Z,17.30
2019-02-25T23:19:55.764Z,17.97
2019-02-25T23:22:25.523Z,17.77
2019-02-25T23:24:57.184Z,16.37
2019-02-25T23:27:27.781Z,18.97
2019-02-25T23:29:58.556Z,15.77
2019-02-25T23:32:27.887Z,18.60
2019-02-25T23:34:57.739Z,19.93
2019-02-25T23:37:27.495Z,15.73
2019-02-25T23:40:00.087Z,20.43
2019-02-25T23:42:32.742Z,22.67
2019-02-25T23:45:00.295Z,20.63
2019-02-25T23:47:31.639Z,20.20
2019-02-25T23:50:04.024Z,15.60
2019-02-25T23:52:33.776Z,17.60
2019-02-25T23:55:14.763Z,19.90
2019-02-25T23:57:43.513Z,18.23
